sensor_id;sensor_type;location;lat;lon;timestamp;P1;durP1;ratioP1;P2;durP2;ratioP2
20557;SDS011;10437;48.156;11.530;2023-03-03T00:00:46;56.63;;;19.13;;
20557;SDS011;10437;48.156;11.530;2023-03-03T00:03:14;52.27;;;18.97;;
20557;SDS011;10437;48.156;11.530;2023-03-03T00:05:42;48.10;;;17.43;;
20557;SDS011;10437;48.156;11.530;2023-03-03T00:08:09;48.53;;;17.77;;
20557;SDS011;10437;48.156;11.530;2023-03-03T00:10:36;50.03;;;18.83;;
20557;SDS011;10437;48.156;11.530;2023-03-03T00:13:06;53.20;;;19.47;;
20557;SDS011;10437;48.156;11.530;2023-03-03T00:15:40;49.23;;;18.27;;
20557;SDS011;10437;48.156;11.530;2023-03-03T00:18:12;50.73;;;19.10;;
20557;SDS011;10437;48.156;11.530;2023-03-03T00:20:47;53.10;;;19.73;;
20557;SDS011;10437;48.156;11.530;2023-03-03T00:23:19;52.63;;;18.73;;
20557;SDS011;10437;48.156;11.530;2023-03-03T00:25:51;54.00;;;19.67;;
20557;SDS011;10437;48.156;11.530;2023-03-03T00:28:23;50.63;;;18.83;;
20557;SDS011;10437;48.156;11.530;2023-03-03T00:30:51;50.57;;;18.50;;
20557;SDS011;10437;48.156;11.530;2023-03-03T00:33:21;52.87;;;19.57;;
20557;SDS011;10437;48.156;11.530;2023-03-03T00:35:53;53.57;;;19.60;;
20557;SDS011;10437;48.156;11.530;2023-03-03T00:38:20;52.20;;;19.63;;
20557;SDS011;10437;48.156;11.530;2023-03-03T00:40:47;55.83;;;19.07;;
20557;SDS011;10437;48.156;11.530;2023-03-03T00:43:17;47.87;;;18.73;;
20557;SDS011;10437;48.156;11.530;2023-03-03T00:45:46;51.10;;;20.00;;
20557;SDS011;10437;48.156;11.530;2023-03-03T00:48:19;54.13;;;19.23;;
20557;SDS011;10437;48.156;11.530;2023-03-03T00:50:47;53.97;;;18.97;;
20557;SDS011;10437;48.156;11.530;2023-03-03T00:53:15;51.80;;;18.67;;
20557;SDS011;10437;48.156;11.530;2023-03-03T00:55:43;50.73;;;18.43;;
20557;SDS011;10437;48.156;11.530;2023-03-03T00:58:10;54.40;;;20.00;;
20557;SDS011;10437;48.156;11.530;2023-03-03T01:00:38;52.13;;;18.80;;
20557;SDS011;10437;48.156;11.530;2023-03-03T01:03:07;59.93;;;20.90;;
20557;SDS011;10437;48.156;11.530;2023-03-03T01:05:35;52.67;;;19.53;;
20557;SDS011;10437;48.156;11.530;2023-03-03T01:08:02;50.23;;;19.10;;
20557;SDS011;10437;48.156;11.530;2023-03-03T01:10:30;52.57;;;19.60;;
20557;SDS011;10437;48.156;11.530;2023-03-03T01:12:59;54.10;;;19.30;;
20557;SDS011;10437;48.156;11.530;2023-03-03T01:15:26;52.90;;;18.90;;
20557;SDS011;10437;48.156;11.530;2023-03-03T01:17:53;47.17;;;19.23;;
20557;SDS011;10437;48.156;11.530;2023-03-03T01:20:22;54.10;;;20.03;;
20557;SDS011;10437;48.156;11.530;2023-03-03T01:22:49;54.20;;;19.87;;
20557;SDS011;10437;48.156;11.530;2023-03-03T01:25:16;54.70;;;19.13;;
20557;SDS011;10437;48.156;11.530;2023-03-03T01:27:43;50.83;;;19.13;;
20557;SDS011;10437;48.156;11.530;2023-03-03T01:30:11;47.83;;;18.20;;
20557;SDS011;10437;48.156;11.530;2023-03-03T01:32:38;56.30;;;21.33;;
20557;SDS011;10437;48.156;11.530;2023-03-03T01:35:05;52.23;;;20.07;;
20557;SDS011;10437;48.156;11.530;2023-03-03T01:37:34;50.57;;;18.53;;
20557;SDS011;10437;48.156;11.530;2023-03-03T01:40:01;45.23;;;17.50;;
20557;SDS011;10437;48.156;11.530;2023-03-03T01:42:29;50.97;;;19.43;;
20557;SDS011;10437;48.156;11.530;2023-03-03T01:45:12;52.90;;;19.57;;
20557;SDS011;10437;48.156;11.530;2023-03-03T01:47:42;46.27;;;18.20;;
20557;SDS011;10437;48.156;11.530;2023-03-03T01:50:11;53.50;;;18.80;;
20557;SDS011;10437;48.156;11.530;2023-03-03T01:52:42;50.93;;;19.60;;
20557;SDS011;10437;48.156;11.530;2023-03-03T01:55:13;48.57;;;18.53;;
20557;SDS011;10437;48.156;11.530;2023-03-03T01:57:43;54.20;;;19.47;;
20557;SDS011;10437;48.156;11.530;2023-03-03T02:00:13;57.80;;;19.27;;
20557;SDS011;10437;48.156;11.530;2023-03-03T02:02:40;51.90;;;18.80;;
20557;SDS011;10437;48.156;11.530;2023-03-03T02:05:08;49.47;;;18.67;;
20557;SDS011;10437;48.156;11.530;2023-03-03T02:07:35;51.23;;;19.10;;
20557;SDS011;10437;48.156;11.530;2023-03-03T02:10:05;50.50;;;19.17;;
20557;SDS011;10437;48.156;11.530;2023-03-03T02:12:35;54.57;;;20.27;;
20557;SDS011;10437;48.156;11.530;2023-03-03T02:15:07;54.13;;;19.47;;
20557;SDS011;10437;48.156;11.530;2023-03-03T02:17:41;57.27;;;19.37;;
20557;SDS011;10437;48.156;11.530;2023-03-03T02:20:09;49.90;;;19.33;;
20557;SDS011;10437;48.156;11.530;2023-03-03T02:22:40;56.17;;;19.73;;
20557;SDS011;10437;48.156;11.530;2023-03-03T02:25:15;49.67;;;19.53;;
20557;SDS011;10437;48.156;11.530;2023-03-03T02:27:48;54.30;;;19.77;;
20557;SDS011;10437;48.156;11.530;2023-03-03T02:30:16;52.03;;;19.53;;
20557;SDS011;10437;48.156;11.530;2023-03-03T02:32:46;52.43;;;19.53;;
20557;SDS011;10437;48.156;11.530;2023-03-03T02:35:29;54.83;;;20.90;;
20557;SDS011;10437;48.156;11.530;2023-03-03T02:37:59;52.10;;;19.30;;
20557;SDS011;10437;48.156;11.530;2023-03-03T02:40:33;59.50;;;19.60;;
20557;SDS011;10437;48.156;11.530;2023-03-03T02:43:05;54.63;;;20.17;;
20557;SDS011;10437;48.156;11.530;2023-03-03T02:45:33;50.93;;;18.80;;
20557;SDS011;10437;48.156;11.530;2023-03-03T02:48:00;48.17;;;19.10;;
20557;SDS011;10437;48.156;11.530;2023-03-03T02:50:27;53.23;;;19.97;;
20557;SDS011;10437;48.156;11.530;2023-03-03T02:52:54;50.23;;;19.07;;
20557;SDS011;10437;48.156;11.530;2023-03-03T02:55:22;57.43;;;20.90;;
20557;SDS011;10437;48.156;11.530;2023-03-03T02:57:49;52.50;;;19.93;;
20557;SDS011;10437;48.156;11.530;2023-03-03T03:00:18;50.20;;;19.50;;
20557;SDS011;10437;48.156;11.530;2023-03-03T03:02:45;46.50;;;18.47;;
20557;SDS011;10437;48.156;11.530;2023-03-03T03:05:12;58.63;;;20.97;;
20557;SDS011;10437;48.156;11.530;2023-03-03T03:07:39;51.50;;;18.87;;
20557;SDS011;10437;48.156;11.530;2023-03-03T03:10:07;53.63;;;20.07;;
20557;SDS011;10437;48.156;11.530;2023-03-03T03:12:34;52.27;;;19.17;;
20557;SDS011;10437;48.156;11.530;2023-03-03T03:15:01;49.13;;;19.97;;
20557;SDS011;10437;48.156;11.530;2023-03-03T03:17:30;54.70;;;19.37;;
20557;SDS011;10437;48.156;11.530;2023-03-03T03:19:56;51.40;;;18.70;;
20557;SDS011;10437;48.156;11.530;2023-03-03T03:22:24;53.87;;;19.50;;
20557;SDS011;10437;48.156;11.530;2023-03-03T03:24:51;53.23;;;19.40;;
20557;SDS011;10437;48.156;11.530;2023-03-03T03:27:18;51.33;;;19.43;;
20557;SDS011;10437;48.156;11.530;2023-03-03T03:29:47;52.33;;;18.90;;
20557;SDS011;10437;48.156;11.530;2023-03-03T03:32:14;51.97;;;19.20;;
20557;SDS011;10437;48.156;11.530;2023-03-03T03:34:43;48.93;;;19.03;;
20557;SDS011;10437;48.156;11.530;2023-03-03T03:37:10;49.43;;;19.20;;
20557;SDS011;10437;48.156;11.530;2023-03-03T03:39:37;52.77;;;20.80;;
20557;SDS011;10437;48.156;11.530;2023-03-03T03:42:04;55.60;;;20.43;;
20557;SDS011;10437;48.156;11.530;2023-03-03T03:44:31;47.73;;;18.83;;
20557;SDS011;10437;48.156;11.530;2023-03-03T03:46:58;53.43;;;19.73;;
20557;SDS011;10437;48.156;11.530;2023-03-03T03:49:26;53.20;;;19.43;;
20557;SDS011;10437;48.156;11.530;2023-03-03T03:51:54;50.77;;;19.33;;
20557;SDS011;10437;48.156;11.530;2023-03-03T03:54:21;54.50;;;18.83;;
20557;SDS011;10437;48.156;11.530;2023-03-03T03:56:48;49.53;;;20.13;;
20557;SDS011;10437;48.156;11.530;2023-03-03T03:59:15;52.70;;;20.40;;
20557;SDS011;10437;48.156;11.530;2023-03-03T04:01:43;47.87;;;18.73;;
20557;SDS011;10437;48.156;11.530;2023-03-03T04:04:10;53.87;;;20.37;;
20557;SDS011;10437;48.156;11.530;2023-03-03T04:06:37;51.73;;;19.07;;
20557;SDS011;10437;48.156;11.530;2023-03-03T04:09:05;55.43;;;19.83;;
20557;SDS011;10437;48.156;11.530;2023-03-03T04:11:32;52.23;;;20.80;;
20557;SDS011;10437;48.156;11.530;2023-03-03T04:13:59;50.70;;;19.20;;
20557;SDS011;10437;48.156;11.530;2023-03-03T04:16:26;51.03;;;20.27;;
20557;SDS011;10437;48.156;11.530;2023-03-03T04:18:54;52.67;;;20.43;;
20557;SDS011;10437;48.156;11.530;2023-03-03T04:21:21;52.10;;;20.70;;
20557;SDS011;10437;48.156;11.530;2023-03-03T04:23:48;54.03;;;19.70;;
20557;SDS011;10437;48.156;11.530;2023-03-03T04:26:16;51.63;;;20.57;;
20557;SDS011;10437;48.156;11.530;2023-03-03T04:28:44;49.13;;;20.10;;
20557;SDS011;10437;48.156;11.530;2023-03-03T04:31:11;47.73;;;19.10;;
20557;SDS011;10437;48.156;11.530;2023-03-03T04:33:38;54.30;;;20.03;;
20557;SDS011;10437;48.156;11.530;2023-03-03T04:36:05;53.87;;;20.27;;
20557;SDS011;10437;48.156;11.530;2023-03-03T04:38:34;48.70;;;19.07;;
20557;SDS011;10437;48.156;11.530;2023-03-03T04:41:01;50.80;;;19.03;;
20557;SDS011;10437;48.156;11.530;2023-03-03T04:43:30;55.43;;;21.07;;
20557;SDS011;10437;48.156;11.530;2023-03-03T04:45:57;54.03;;;19.07;;
20557;SDS011;10437;48.156;11.530;2023-03-03T04:48:24;51.73;;;20.27;;
20557;SDS011;10437;48.156;11.530;2023-03-03T04:50:51;58.67;;;21.70;;
20557;SDS011;10437;48.156;11.530;2023-03-03T04:53:18;47.37;;;19.50;;
20557;SDS011;10437;48.156;11.530;2023-03-03T04:55:45;54.73;;;20.03;;
20557;SDS011;10437;48.156;11.530;2023-03-03T04:58:12;48.13;;;20.07;;
20557;SDS011;10437;48.156;11.530;2023-03-03T05:00:41;51.27;;;20.67;;
20557;SDS011;10437;48.156;11.530;2023-03-03T05:03:09;50.50;;;19.97;;
20557;SDS011;10437;48.156;11.530;2023-03-03T05:05:36;52.03;;;19.53;;
20557;SDS011;10437;48.156;11.530;2023-03-03T05:08:04;54.33;;;20.63;;
20557;SDS011;10437;48.156;11.530;2023-03-03T05:10:31;51.63;;;20.23;;
20557;SDS011;10437;48.156;11.530;2023-03-03T05:12:58;56.53;;;19.80;;
20557;SDS011;10437;48.156;11.530;2023-03-03T05:15:25;54.23;;;20.67;;
20557;SDS011;10437;48.156;11.530;2023-03-03T05:17:54;51.90;;;19.67;;
20557;SDS011;10437;48.156;11.530;2023-03-03T05:20:21;53.20;;;21.23;;
20557;SDS011;10437;48.156;11.530;2023-03-03T05:22:48;55.23;;;20.97;;
20557;SDS011;10437;48.156;11.530;2023-03-03T05:25:16;57.43;;;22.33;;
20557;SDS011;10437;48.156;11.530;2023-03-03T05:27:43;53.83;;;20.33;;
20557;SDS011;10437;48.156;11.530;2023-03-03T05:30:11;56.03;;;20.40;;
20557;SDS011;10437;48.156;11.530;2023-03-03T05:32:38;59.70;;;21.57;;
20557;SDS011;10437;48.156;11.530;2023-03-03T05:35:07;57.33;;;21.33;;
20557;SDS011;10437;48.156;11.530;2023-03-03T05:37:34;64.47;;;22.13;;
20557;SDS011;10437;48.156;11.530;2023-03-03T05:40:04;57.03;;;21.43;;
20557;SDS011;10437;48.156;11.530;2023-03-03T05:42:31;55.20;;;21.87;;
20557;SDS011;10437;48.156;11.530;2023-03-03T05:44:58;59.00;;;22.37;;
20557;SDS011;10437;48.156;11.530;2023-03-03T05:47:26;58.07;;;21.33;;
20557;SDS011;10437;48.156;11.530;2023-03-03T05:49:53;57.13;;;21.37;;
20557;SDS011;10437;48.156;11.530;2023-03-03T05:52:21;53.47;;;21.77;;
20557;SDS011;10437;48.156;11.530;2023-03-03T05:54:49;61.87;;;22.40;;
20557;SDS011;10437;48.156;11.530;2023-03-03T05:57:16;56.83;;;21.20;;
20557;SDS011;10437;48.156;11.530;2023-03-03T05:59:43;55.73;;;21.20;;
20557;SDS011;10437;48.156;11.530;2023-03-03T06:02:10;56.20;;;21.53;;
20557;SDS011;10437;48.156;11.530;2023-03-03T06:04:37;55.23;;;21.10;;
20557;SDS011;10437;48.156;11.530;2023-03-03T06:07:05;57.27;;;22.07;;
20557;SDS011;10437;48.156;11.530;2023-03-03T06:09:33;61.77;;;21.77;;
20557;SDS011;10437;48.156;11.530;2023-03-03T06:12:00;56.27;;;21.23;;
20557;SDS011;10437;48.156;11.530;2023-03-03T06:14:28;65.13;;;22.87;;
20557;SDS011;10437;48.156;11.530;2023-03-03T06:16:55;54.60;;;21.13;;
20557;SDS011;10437;48.156;11.530;2023-03-03T06:19:22;52.47;;;21.10;;
20557;SDS011;10437;48.156;11.530;2023-03-03T06:21:49;58.10;;;22.23;;
20557;SDS011;10437;48.156;11.530;2023-03-03T06:24:16;56.87;;;21.73;;
20557;SDS011;10437;48.156;11.530;2023-03-03T06:26:45;63.23;;;21.37;;
20557;SDS011;10437;48.156;11.530;2023-03-03T06:29:12;61.43;;;22.83;;
20557;SDS011;10437;48.156;11.530;2023-03-03T06:31:39;75.13;;;25.93;;
20557;SDS011;10437;48.156;11.530;2023-03-03T06:34:07;57.07;;;21.73;;
20557;SDS011;10437;48.156;11.530;2023-03-03T06:36:34;67.73;;;23.13;;
20557;SDS011;10437;48.156;11.530;2023-03-03T06:39:01;59.77;;;23.17;;
20557;SDS011;10437;48.156;11.530;2023-03-03T06:41:28;62.20;;;24.20;;
20557;SDS011;10437;48.156;11.530;2023-03-03T06:43:57;67.23;;;24.27;;
20557;SDS011;10437;48.156;11.530;2023-03-03T06:46:24;59.83;;;23.53;;
20557;SDS011;10437;48.156;11.530;2023-03-03T06:48:51;69.40;;;23.70;;
20557;SDS011;10437;48.156;11.530;2023-03-03T06:51:22;70.97;;;24.63;;
20557;SDS011;10437;48.156;11.530;2023-03-03T06:53:53;66.93;;;23.73;;
20557;SDS011;10437;48.156;11.530;2023-03-03T06:56:23;64.03;;;24.23;;
20557;SDS011;10437;48.156;11.530;2023-03-03T06:58:52;61.53;;;23.60;;
20557;SDS011;10437;48.156;11.530;2023-03-03T07:01:21;66.43;;;24.73;;
20557;SDS011;10437;48.156;11.530;2023-03-03T07:03:48;74.90;;;27.97;;
20557;SDS011;10437;48.156;11.530;2023-03-03T07:06:17;65.63;;;24.43;;
20557;SDS011;10437;48.156;11.530;2023-03-03T07:08:48;57.63;;;23.97;;
20557;SDS011;10437;48.156;11.530;2023-03-03T07:11:16;68.10;;;25.30;;
20557;SDS011;10437;48.156;11.530;2023-03-03T07:13:45;69.40;;;25.97;;
20557;SDS011;10437;48.156;11.530;2023-03-03T07:16:13;64.40;;;24.00;;
20557;SDS011;10437;48.156;11.530;2023-03-03T07:18:46;65.30;;;24.30;;
20557;SDS011;10437;48.156;11.530;2023-03-03T07:21:16;66.60;;;24.30;;
20557;SDS011;10437;48.156;11.530;2023-03-03T07:23:45;62.33;;;24.73;;
20557;SDS011;10437;48.156;11.530;2023-03-03T07:26:13;67.93;;;24.40;;
20557;SDS011;10437;48.156;11.530;2023-03-03T07:28:41;63.10;;;24.23;;
20557;SDS011;10437;48.156;11.530;2023-03-03T07:31:20;63.53;;;24.20;;
20557;SDS011;10437;48.156;11.530;2023-03-03T07:33:55;64.57;;;24.47;;
20557;SDS011;10437;48.156;11.530;2023-03-03T07:36:25;104.83;;;36.40;;
20557;SDS011;10437;48.156;11.530;2023-03-03T07:38:54;96.13;;;32.83;;
20557;SDS011;10437;48.156;11.530;2023-03-03T07:41:24;68.17;;;25.30;;
20557;SDS011;10437;48.156;11.530;2023-03-03T07:43:52;65.70;;;24.20;;
20557;SDS011;10437;48.156;11.530;2023-03-03T07:46:22;63.80;;;23.30;;
20557;SDS011;10437;48.156;11.530;2023-03-03T07:48:56;63.90;;;23.03;;
20557;SDS011;10437;48.156;11.530;2023-03-03T07:51:25;67.83;;;24.90;;
20557;SDS011;10437;48.156;11.530;2023-03-03T07:53:53;66.73;;;25.50;;
20557;SDS011;10437;48.156;11.530;2023-03-03T07:56:36;64.60;;;23.97;;
20557;SDS011;10437;48.156;11.530;2023-03-03T07:59:08;69.03;;;25.83;;
20557;SDS011;10437;48.156;11.530;2023-03-03T08:01:45;64.40;;;24.80;;
20557;SDS011;10437;48.156;11.530;2023-03-03T08:04:19;66.00;;;25.07;;
20557;SDS011;10437;48.156;11.530;2023-03-03T08:06:50;63.77;;;24.37;;
20557;SDS011;10437;48.156;11.530;2023-03-03T08:09:28;65.77;;;25.13;;
20557;SDS011;10437;48.156;11.530;2023-03-03T08:12:12;61.10;;;24.43;;
20557;SDS011;10437;48.156;11.530;2023-03-03T08:14:49;65.83;;;24.63;;
20557;SDS011;10437;48.156;11.530;2023-03-03T08:17:18;63.70;;;24.57;;
20557;SDS011;10437;48.156;11.530;2023-03-03T08:19:47;72.17;;;25.43;;
20557;SDS011;10437;48.156;11.530;2023-03-03T08:22:15;69.27;;;24.57;;
20557;SDS011;10437;48.156;11.530;2023-03-03T08:24:44;68.17;;;25.83;;
20557;SDS011;10437;48.156;11.530;2023-03-03T08:27:11;64.50;;;25.57;;
20557;SDS011;10437;48.156;11.530;2023-03-03T08:29:38;73.00;;;25.87;;
20557;SDS011;10437;48.156;11.530;2023-03-03T08:32:05;63.83;;;24.80;;
20557;SDS011;10437;48.156;11.530;2023-03-03T08:34:32;64.20;;;25.17;;
20557;SDS011;10437;48.156;11.530;2023-03-03T08:37:01;70.40;;;24.93;;
20557;SDS011;10437;48.156;11.530;2023-03-03T08:39:28;65.90;;;24.23;;
20557;SDS011;10437;48.156;11.530;2023-03-03T08:41:55;67.27;;;24.83;;
20557;SDS011;10437;48.156;11.530;2023-03-03T08:44:22;65.73;;;25.10;;
20557;SDS011;10437;48.156;11.530;2023-03-03T08:46:49;67.23;;;24.80;;
20557;SDS011;10437;48.156;11.530;2023-03-03T08:49:17;64.43;;;26.13;;
20557;SDS011;10437;48.156;11.530;2023-03-03T08:51:50;61.47;;;24.33;;
20557;SDS011;10437;48.156;11.530;2023-03-03T08:54:20;59.90;;;25.73;;
20557;SDS011;10437;48.156;11.530;2023-03-03T08:56:46;62.53;;;25.23;;
20557;SDS011;10437;48.156;11.530;2023-03-03T08:59:14;58.40;;;24.87;;
20557;SDS011;10437;48.156;11.530;2023-03-03T09:01:41;71.37;;;26.10;;
20557;SDS011;10437;48.156;11.530;2023-03-03T09:04:09;62.60;;;24.47;;
20557;SDS011;10437;48.156;11.530;2023-03-03T09:06:36;66.20;;;25.30;;
20557;SDS011;10437;48.156;11.530;2023-03-03T09:09:03;72.53;;;27.20;;
20557;SDS011;10437;48.156;11.530;2023-03-03T09:11:32;68.80;;;26.43;;
20557;SDS011;10437;48.156;11.530;2023-03-03T09:14:01;60.83;;;24.30;;
20557;SDS011;10437;48.156;11.530;2023-03-03T09:16:33;65.07;;;26.30;;
20557;SDS011;10437;48.156;11.530;2023-03-03T09:19:14;62.33;;;25.67;;
20557;SDS011;10437;48.156;11.530;2023-03-03T09:21:45;67.13;;;25.83;;
20557;SDS011;10437;48.156;11.530;2023-03-03T09:24:16;60.93;;;26.40;;
20557;SDS011;10437;48.156;11.530;2023-03-03T09:26:50;66.60;;;25.77;;
20557;SDS011;10437;48.156;11.530;2023-03-03T09:29:23;66.13;;;26.43;;
20557;SDS011;10437;48.156;11.530;2023-03-03T09:31:52;62.93;;;25.23;;
20557;SDS011;10437;48.156;11.530;2023-03-03T09:34:21;62.43;;;25.53;;
20557;SDS011;10437;48.156;11.530;2023-03-03T09:36:50;67.10;;;26.10;;
20557;SDS011;10437;48.156;11.530;2023-03-03T09:39:18;62.10;;;25.63;;
20557;SDS011;10437;48.156;11.530;2023-03-03T09:41:58;67.43;;;26.93;;
20557;SDS011;10437;48.156;11.530;2023-03-03T09:44:51;60.10;;;24.60;;
20557;SDS011;10437;48.156;11.530;2023-03-03T09:47:39;66.17;;;25.73;;
20557;SDS011;10437;48.156;11.530;2023-03-03T09:50:17;61.93;;;24.37;;
20557;SDS011;10437;48.156;11.530;2023-03-03T09:52:51;66.90;;;26.90;;
20557;SDS011;10437;48.156;11.530;2023-03-03T09:55:33;63.00;;;25.47;;
20557;SDS011;10437;48.156;11.530;2023-03-03T09:58:15;58.83;;;24.57;;
20557;SDS011;10437;48.156;11.530;2023-03-03T10:00:54;61.07;;;25.77;;
20557;SDS011;10437;48.156;11.530;2023-03-03T10:03:51;60.80;;;26.13;;
20557;SDS011;10437;48.156;11.530;2023-03-03T10:06:37;59.70;;;24.30;;
20557;SDS011;10437;48.156;11.530;2023-03-03T10:09:19;59.23;;;26.10;;
20557;SDS011;10437;48.156;11.530;2023-03-03T10:12:08;65.57;;;24.77;;
20557;SDS011;10437;48.156;11.530;2023-03-03T10:14:47;63.63;;;26.60;;
20557;SDS011;10437;48.156;11.530;2023-03-03T10:17:41;60.23;;;24.70;;
20557;SDS011;10437;48.156;11.530;2023-03-03T10:23:14;61.53;;;25.70;;
20557;SDS011;10437;48.156;11.530;2023-03-03T10:25:49;62.30;;;25.47;;
20557;SDS011;10437;48.156;11.530;2023-03-03T10:31:32;65.57;;;26.33;;
20557;SDS011;10437;48.156;11.530;2023-03-03T10:34:14;58.73;;;25.20;;
20557;SDS011;10437;48.156;11.530;2023-03-03T10:36:54;64.00;;;25.67;;
20557;SDS011;10437;48.156;11.530;2023-03-03T10:42:20;63.40;;;26.30;;
20557;SDS011;10437;48.156;11.530;2023-03-03T10:45:06;63.93;;;25.23;;
20557;SDS011;10437;48.156;11.530;2023-03-03T10:48:03;72.83;;;27.83;;
20557;SDS011;10437;48.156;11.530;2023-03-03T10:50:45;57.10;;;25.00;;
20557;SDS011;10437;48.156;11.530;2023-03-03T10:53:20;65.87;;;26.73;;
20557;SDS011;10437;48.156;11.530;2023-03-03T10:55:54;63.27;;;26.40;;
20557;SDS011;10437;48.156;11.530;2023-03-03T11:01:24;55.63;;;25.17;;
20557;SDS011;10437;48.156;11.530;2023-03-03T11:04:15;65.67;;;25.90;;
20557;SDS011;10437;48.156;11.530;2023-03-03T11:07:15;65.33;;;26.03;;
20557;SDS011;10437;48.156;11.530;2023-03-03T11:09:57;59.50;;;26.07;;
20557;SDS011;10437;48.156;11.530;2023-03-03T11:12:39;59.60;;;25.17;;
20557;SDS011;10437;48.156;11.530;2023-03-03T11:15:18;57.93;;;25.40;;
20557;SDS011;10437;48.156;11.530;2023-03-03T11:17:55;66.80;;;26.07;;
20557;SDS011;10437;48.156;11.530;2023-03-03T11:20:35;62.77;;;26.03;;
20557;SDS011;10437;48.156;11.530;2023-03-03T11:23:13;64.53;;;25.47;;
20557;SDS011;10437;48.156;11.530;2023-03-03T11:25:56;58.47;;;26.20;;
20557;SDS011;10437;48.156;11.530;2023-03-03T11:28:37;61.13;;;26.33;;
20557;SDS011;10437;48.156;11.530;2023-03-03T11:31:17;61.70;;;27.03;;
20557;SDS011;10437;48.156;11.530;2023-03-03T11:33:53;62.03;;;26.07;;
20557;SDS011;10437;48.156;11.530;2023-03-03T11:36:29;67.13;;;27.37;;
20557;SDS011;10437;48.156;11.530;2023-03-03T11:39:01;58.90;;;25.97;;
20557;SDS011;10437;48.156;11.530;2023-03-03T11:41:29;56.93;;;26.47;;
20557;SDS011;10437;48.156;11.530;2023-03-03T11:44:02;57.03;;;24.57;;
20557;SDS011;10437;48.156;11.530;2023-03-03T11:46:36;64.53;;;26.43;;
20557;SDS011;10437;48.156;11.530;2023-03-03T11:49:08;61.77;;;26.27;;
20557;SDS011;10437;48.156;11.530;2023-03-03T11:51:46;60.97;;;25.67;;
20557;SDS011;10437;48.156;11.530;2023-03-03T11:54:19;58.70;;;26.07;;
20557;SDS011;10437;48.156;11.530;2023-03-03T11:56:49;65.57;;;26.53;;
20557;SDS011;10437;48.156;11.530;2023-03-03T11:59:25;60.67;;;26.57;;
20557;SDS011;10437;48.156;11.530;2023-03-03T12:02:09;58.33;;;25.20;;
20557;SDS011;10437;48.156;11.530;2023-03-03T12:04:57;64.77;;;26.67;;
20557;SDS011;10437;48.156;11.530;2023-03-03T12:07:31;57.97;;;25.17;;
20557;SDS011;10437;48.156;11.530;2023-03-03T12:10:11;63.33;;;26.33;;
20557;SDS011;10437;48.156;11.530;2023-03-03T12:12:44;57.10;;;26.10;;
20557;SDS011;10437;48.156;11.530;2023-03-03T12:15:18;52.40;;;24.60;;
20557;SDS011;10437;48.156;11.530;2023-03-03T12:18:09;55.97;;;24.80;;
20557;SDS011;10437;48.156;11.530;2023-03-03T12:20:48;57.83;;;25.40;;
20557;SDS011;10437;48.156;11.530;2023-03-03T12:23:34;59.57;;;24.20;;
20557;SDS011;10437;48.156;11.530;2023-03-03T12:26:13;59.73;;;25.13;;
20557;SDS011;10437;48.156;11.530;2023-03-03T12:28:44;55.50;;;25.47;;
20557;SDS011;10437;48.156;11.530;2023-03-03T12:31:19;60.43;;;25.37;;
20557;SDS011;10437;48.156;11.530;2023-03-03T12:34:06;59.10;;;26.63;;
20557;SDS011;10437;48.156;11.530;2023-03-03T12:36:48;59.20;;;26.67;;
20557;SDS011;10437;48.156;11.530;2023-03-03T12:39:32;62.20;;;25.80;;
20557;SDS011;10437;48.156;11.530;2023-03-03T12:42:09;59.83;;;26.40;;
20557;SDS011;10437;48.156;11.530;2023-03-03T12:44:43;60.83;;;25.33;;
20557;SDS011;10437;48.156;11.530;2023-03-03T12:47:14;70.47;;;27.37;;
20557;SDS011;10437;48.156;11.530;2023-03-03T12:49:50;64.30;;;26.27;;
20557;SDS011;10437;48.156;11.530;2023-03-03T12:52:29;67.63;;;26.70;;
20557;SDS011;10437;48.156;11.530;2023-03-03T12:55:07;60.70;;;26.83;;
20557;SDS011;10437;48.156;11.530;2023-03-03T12:57:42;59.73;;;25.93;;
20557;SDS011;10437;48.156;11.530;2023-03-03T13:00:25;65.17;;;25.63;;
20557;SDS011;10437;48.156;11.530;2023-03-03T13:02:57;60.60;;;26.80;;
20557;SDS011;10437;48.156;11.530;2023-03-03T13:05:28;61.93;;;25.87;;
20557;SDS011;10437;48.156;11.530;2023-03-03T13:08:04;60.00;;;26.93;;
20557;SDS011;10437;48.156;11.530;2023-03-03T13:10:55;57.63;;;25.47;;
20557;SDS011;10437;48.156;11.530;2023-03-03T13:13:31;64.13;;;26.00;;
20557;SDS011;10437;48.156;11.530;2023-03-03T13:16:03;61.03;;;26.13;;
20557;SDS011;10437;48.156;11.530;2023-03-03T13:18:40;62.63;;;27.63;;
20557;SDS011;10437;48.156;11.530;2023-03-03T13:21:16;69.73;;;27.77;;
20557;SDS011;10437;48.156;11.530;2023-03-03T13:23:50;57.30;;;25.67;;
20557;SDS011;10437;48.156;11.530;2023-03-03T13:26:24;59.27;;;26.67;;
20557;SDS011;10437;48.156;11.530;2023-03-03T13:28:56;58.57;;;26.03;;
20557;SDS011;10437;48.156;11.530;2023-03-03T13:31:28;58.10;;;25.77;;
20557;SDS011;10437;48.156;11.530;2023-03-03T13:33:59;62.57;;;26.30;;
20557;SDS011;10437;48.156;11.530;2023-03-03T13:36:28;58.10;;;26.10;;
20557;SDS011;10437;48.156;11.530;2023-03-03T13:39:00;57.87;;;26.30;;
20557;SDS011;10437;48.156;11.530;2023-03-03T13:41:34;58.57;;;25.47;;
20557;SDS011;10437;48.156;11.530;2023-03-03T13:44:10;64.93;;;26.60;;
20557;SDS011;10437;48.156;11.530;2023-03-03T13:46:41;59.77;;;25.57;;
20557;SDS011;10437;48.156;11.530;2023-03-03T13:49:22;59.73;;;24.83;;
20557;SDS011;10437;48.156;11.530;2023-03-03T13:51:59;60.57;;;26.90;;
20557;SDS011;10437;48.156;11.530;2023-03-03T13:54:34;67.50;;;26.27;;
20557;SDS011;10437;48.156;11.530;2023-03-03T13:57:24;60.53;;;26.07;;
20557;SDS011;10437;48.156;11.530;2023-03-03T14:00:15;59.87;;;26.47;;
20557;SDS011;10437;48.156;11.530;2023-03-03T14:02:56;64.30;;;26.57;;
20557;SDS011;10437;48.156;11.530;2023-03-03T14:05:34;54.87;;;24.87;;
20557;SDS011;10437;48.156;11.530;2023-03-03T14:08:05;81.13;;;27.07;;
20557;SDS011;10437;48.156;11.530;2023-03-03T14:10:41;60.70;;;25.93;;
20557;SDS011;10437;48.156;11.530;2023-03-03T14:13:15;63.65;;;29.98;;
20557;SDS011;10437;48.156;11.530;2023-03-03T14:15:52;57.58;;;26.42;;
20557;SDS011;10437;48.156;11.530;2023-03-03T14:18:24;61.50;;;26.67;;
20557;SDS011;10437;48.156;11.530;2023-03-03T14:20:55;56.78;;;26.00;;
20557;SDS011;10437;48.156;11.530;2023-03-03T14:23:29;53.05;;;24.45;;
20557;SDS011;10437;48.156;11.530;2023-03-03T14:26:09;55.85;;;25.88;;
20557;SDS011;10437;48.156;11.530;2023-03-03T14:28:38;59.63;;;25.13;;
20557;SDS011;10437;48.156;11.530;2023-03-03T14:31:19;53.47;;;24.38;;
20557;SDS011;10437;48.156;11.530;2023-03-03T14:36:40;55.88;;;25.25;;
20557;SDS011;10437;48.156;11.530;2023-03-03T14:39:22;51.33;;;24.63;;
20557;SDS011;10437;48.156;11.530;2023-03-03T14:41:55;59.90;;;25.03;;
20557;SDS011;10437;48.156;11.530;2023-03-03T14:44:25;52.47;;;23.73;;
20557;SDS011;10437;48.156;11.530;2023-03-03T14:47:02;54.80;;;25.10;;
20557;SDS011;10437;48.156;11.530;2023-03-03T14:49:38;59.13;;;23.87;;